Terminal Aerodrome Forecast
Issued by NWS

Home | Current Version | Previous Version | Graphics & Text | Print | Product List | Glossary On
Versions: 1 2 3 4 5 6 7 8 9 10 11 12 13 14
000
FTUS43 KICT 012331
TAFCNU
TAF
KCNU 012331Z 0200/0224 15015G22KT P6SM SCT100
     FM021000 17018G28KT P6SM VCTS BKN015 OVC060CB
     FM021500 36013G22KT P6SM SCT020 BKN120
     FM022200 06008KT P6SM SCT030=

USA.gov is the U.S. government's official web portal to all federal, state and local government web resources and services.